Vivien A — TCYC4 — position and weather

sailwx.info

Track history (hours):
 
Tides and Currents Weather Stations Pressure Air Temp Water Temp Dewpoint Dewpoint Depression Visibility Wind Speed Wind Dir Waves Ship Positions

Vivien A

Last reported at 2016-Sep-28 15:06 UTC. Time now 2016-Sep-30 13:34 UTC.
Position N 26°54' W 014°44'.

Length 210 m; draft 11.7 m.

Type: Ship (hazmat cat A). MMSI: 271040635.

Date/timePositionNaut miles runAvg speedWind from/ knotsBaromVisibWave heightAir tempDewpointWater temp
2016-Sep-28 15:06N 26°54' W 014°44'3513.8
2016-Sep-28 12:33N 27°21' W 014°20'5513.9
2016-Sep-28 08:33N 28°05' W 013°41'6913.8
2016-Sep-28 03:33N 29°01' W 012°56'1814.5
2016-Sep-28 02:16N 29°16' W 012°43'1014.6
2016-Sep-28 01:33N 29°25' W 012°36'  
2016-Sep-24 09:20N 36°22' W 002°55'10017.2
2016-Sep-24 03:31N 37°10' W 001°06'1717.9
2016-Sep-24 02:33N 37°22' W 000°49'1817.6
2016-Sep-24 01:33N 37°34' W 000°33'1717.5
2016-Sep-24 00:33N 37°48' W 000°21'99 2.7
2016-Sep-22 12:32N 39°27' W 000°19'0 0.0
2016-Sep-22 04:32N 39°27' W 000°19'0 0.0
2016-Sep-22 03:32N 39°27' W 000°19'0 0.0
2016-Sep-22 00:29N 39°27' W 000°19'0 0.0
2016-Sep-21 23:29N 39°27' W 000°19'0 0.0
2016-Sep-21 22:32N 39°27' W 000°19'0 0.0
2016-Sep-21 19:32N 39°27' W 000°19'0 0.0
2016-Sep-21 16:32N 39°27' W 000°19'0 0.0
2016-Sep-21 09:32N 39°27' W 000°19'0 0.0
2016-Sep-21 08:32N 39°27' W 000°19'4 0.8
2016-Sep-21 03:21N 39°24' W 000°15'0 0.0
2016-Sep-20 08:33N 39°24' W 000°15'0 0.0
2016-Sep-20 02:21N 39°24' W 000°15'14 4.8
2016-Sep-19 23:33N 39°34' W 000°03'10211.4
2016-Sep-19 14:33N 40°59' E 001°11'7 0.8
2016-Sep-19 06:20N 41°06' E 001°13'1 0.5
2016-Sep-19 03:30N 41°04' E 001°13'  
Track history (hours):
 
Tides and Currents Weather Stations Pressure Air Temp Water Temp Dewpoint Dewpoint Depression Visibility Wind Speed Wind Dir Waves Ship Positions

Vivien A

Last reported at 2016-Sep-28 15:06 UTC. Time now 2016-Sep-30 13:34 UTC.
Position N 26°54' W 014°44'.

Length 210 m; draft 11.7 m.

Type: Ship (hazmat cat A). MMSI: 271040635.

Date/timePositionNaut miles runAvg speedWind from/ knotsBaromVisibWave heightAir tempDewpointWater temp
2016-Sep-28 15:06N 26°54' W 014°44'3513.8
2016-Sep-28 12:33N 27°21' W 014°20'5513.9
2016-Sep-28 08:33N 28°05' W 013°41'6913.8
2016-Sep-28 03:33N 29°01' W 012°56'1814.5
2016-Sep-28 02:16N 29°16' W 012°43'1014.6
2016-Sep-28 01:33N 29°25' W 012°36'  
2016-Sep-24 09:20N 36°22' W 002°55'10017.2
2016-Sep-24 03:31N 37°10' W 001°06'1717.9
2016-Sep-24 02:33N 37°22' W 000°49'1817.6
2016-Sep-24 01:33N 37°34' W 000°33'1717.5
2016-Sep-24 00:33N 37°48' W 000°21'99 2.7
2016-Sep-22 12:32N 39°27' W 000°19'0 0.0
2016-Sep-22 04:32N 39°27' W 000°19'0 0.0
2016-Sep-22 03:32N 39°27' W 000°19'0 0.0
2016-Sep-22 00:29N 39°27' W 000°19'0 0.0
2016-Sep-21 23:29N 39°27' W 000°19'0 0.0
2016-Sep-21 22:32N 39°27' W 000°19'0 0.0
2016-Sep-21 19:32N 39°27' W 000°19'0 0.0
2016-Sep-21 16:32N 39°27' W 000°19'0 0.0
2016-Sep-21 09:32N 39°27' W 000°19'0 0.0
2016-Sep-21 08:32N 39°27' W 000°19'4 0.8
2016-Sep-21 03:21N 39°24' W 000°15'0 0.0
2016-Sep-20 08:33N 39°24' W 000°15'0 0.0
2016-Sep-20 02:21N 39°24' W 000°15'14 4.8
2016-Sep-19 23:33N 39°34' W 000°03'10211.4
2016-Sep-19 14:33N 40°59' E 001°11'7 0.8
2016-Sep-19 06:20N 41°06' E 001°13'1 0.5
2016-Sep-19 03:30N 41°04' E 001°13'  

Dump ship's entire track history